Waskish, MN

12:23 PM CST on February 07, 2016 (GMT -0600)
Waskish Municipal | | Change Station
CLOSE
Current Station
Airport
Location: Waskish,
Elevation: 1181 ft
Nearby Weather Stations
Active Advisory: Winter Weather Advisory

Elev 1181 ft 48.15 °N, 94.52 °W | Updated 12 minutes ago

Snow
Snow
28 °F
Feels Like 18 °F
N
14
Wind Variable Wind from West
Gusts 21 mph

Today
High -- | Low -- °F
--% Chance of Precip.
Yesterday
High -- | Low -- °F
Precip. -- in
Pressure 29.50 in
Visibility 1.2 miles
Clouds Mostly Cloudy 900 ft
Overcast 1700 ft
Windchill 18 °F
Dew Point 27 °F
Humidity 93%
Rainfall 0.04 in
Snow Depth Not available.
7:38 AM 5:26 PM
Waning Crescent, 1% visible
METAR KVWU 071811Z AUTO 27012G18KT 1 1/4SM -SN BKN009 OVC017 M02/M03 A2950 RMK AO2
Pressure 29.50 in
Visibility 1.2 miles
Clouds Mostly Cloudy 900 ft
Overcast 1700 ft
Windchill 18 °F
Dew Point 27 °F
Humidity 93%
Rainfall 0.04 in
Snow Depth Not available.
7:38 AM 5:26 PM
Waning Crescent, 1% visible
METAR KVWU 071811Z AUTO 27012G18KT 1 1/4SM -SN BKN009 OVC017 M02/M03 A2950 RMK AO2

10-Day Weather Forecast

Almanac

Astronomy

Feb. 07, 2016 Rise Set
Actual Time
Civil Twilight
Nautical Twilight
Astronomical Twilight
Moon
Length of Visible Light
Length of Day
Tomorrow will be .
, % of the Moon is Illuminated

Today's Extremes

State Highs State Lows

Community

WunderPhotos

Upload Photos

1,891,276 photos uploaded!

WunderBlog® & News

Nearby

Air Quality

  Air Quality AQ Index Pollutant
Not available.

Snow Depth

Station Depth Elevation

Earthquake Activity

City Distance Mag. Time & Date
Minimum magnitude displayed is 2.5.

Coastal Water Temperatures

Place Temperature

Stations

Nearby Weather Stations

Station Location Temp. Windchill Dew Point Humidity Wind Precip. Elev Updated Type
                   

Watches & Warnings

Winter Weather Advisory
Issued: 10:16 AM CST Feb. 7, 2016 – National Weather Service

... Winter Weather Advisory remains in effect until 6 am CST
Monday...

* timing... expect snow to continue into tonight.

* Precipitation rates... the heaviest snowfall rates will occur
between noon and 6 PM Sunday.

* Snow accumulations... 1 to 3 inches.

* Winds / visibilities... winds gusting as high as 45 mph will
cause areas of blowing and drifting snow.

* Impacts... plan on slippery Road conditions.

Precautionary/preparedness actions...

A Winter Weather Advisory for snow means periods of snow will
cause primarily travel difficulties. Be prepared for snow covered
roads and limited visibilities... and use caution while driving.
The latest Road conditions for the state you are calling from can
be obtained by calling 5 1 1.